Time;durP1;ratioP1;P1;durP2;ratioP2;P2;SDS_P1;SDS_P2;PMS_P1;PMS_P2;Temp;Humidity;BMP_temperature;BMP_pressure;BME280_temperature;BME280_humidity;BME280_pressure;Samples;Min_cycle;Max_cycle;Signal;HPM_P1;HPM_P2
2023/04/07 00:02:15;;;;;;;1999.90;999.90;;;9.80;99.90;;;;;;5047476;28;20029;-75
2023/04/07 00:04:41;;;;;;;1999.90;999.90;;;9.80;99.90;;;;;;5034615;28;20447;-75
2023/04/07 00:07:07;;;;;;;1999.90;999.90;;;9.80;99.90;;;;;;5038594;28;20049;-70
2023/04/07 00:09:33;;;;;;;1999.90;999.90;;;9.80;99.90;;;;;;5054493;28;20029;-70
2023/04/07 00:12:01;;;;;;;1999.90;999.90;;;9.80;99.90;;;;;;5054549;28;20487;-74
2023/04/07 00:14:27;;;;;;;1999.90;999.90;;;9.80;99.90;;;;;;5054298;28;20032;-75
2023/04/07 00:16:53;;;;;;;1999.90;999.90;;;9.80;99.90;;;;;;5054089;28;20017;-75
2023/04/07 00:19:18;;;;;;;1999.90;999.90;;;9.70;99.90;;;;;;5054133;28;20167;-70
2023/04/07 00:21:44;;;;;;;1999.90;999.90;;;9.70;99.90;;;;;;5054019;28;20079;-70
2023/04/07 00:24:10;;;;;;;1999.90;999.90;;;9.70;99.90;;;;;;5053882;28;20033;-74
2023/04/07 00:26:36;;;;;;;1999.90;999.90;;;9.60;99.90;;;;;;5054126;28;20017;-75
2023/04/07 00:29:01;;;;;;;1999.90;999.90;;;9.60;99.90;;;;;;5053962;28;20033;-75
2023/04/07 00:31:27;;;;;;;1999.90;999.90;;;9.60;99.90;;;;;;5053803;28;20071;-75
2023/04/07 00:33:52;;;;;;;1999.90;999.90;;;9.50;99.90;;;;;;5053349;28;20082;-71
2023/04/07 00:36:18;;;;;;;1999.90;999.90;;;9.50;99.90;;;;;;5054046;28;20097;-70
2023/04/07 00:38:44;;;;;;;1999.90;999.90;;;9.50;99.90;;;;;;5053800;28;20037;-75
2023/04/07 00:41:09;;;;;;;1999.90;999.90;;;9.60;99.90;;;;;;5053466;28;20570;-75
2023/04/07 00:43:35;;;;;;;1999.90;999.90;;;9.60;99.90;;;;;;5053344;28;20076;-70
2023/04/07 00:46:02;;;;;;;1999.90;999.90;;;9.60;99.90;;;;;;5053724;28;20025;-75
2023/04/07 00:48:27;;;;;;;1999.90;999.90;;;9.60;99.90;;;;;;5052811;28;20423;-70
2023/04/07 00:50:53;;;;;;;1999.90;999.90;;;9.50;99.90;;;;;;5053633;28;20021;-75
2023/04/07 00:53:20;;;;;;;1999.90;999.90;;;9.40;99.90;;;;;;5053590;28;20057;-75
2023/04/07 00:55:45;;;;;;;1999.90;999.90;;;9.30;99.90;;;;;;5053417;28;20078;-71
2023/04/07 00:58:11;;;;;;;1999.90;999.90;;;9.30;99.90;;;;;;5053421;28;20032;-70
2023/04/07 01:01:00;;;;;;;1999.90;999.90;;;9.20;99.90;;;;;;5053645;28;20100;-70
2023/04/07 01:03:34;;;;;;;1999.90;999.90;;;9.10;99.90;;;;;;5036688;28;20542;-75
2023/04/07 01:06:04;;;;;;;1999.90;999.90;;;9.10;99.90;;;;;;5033208;28;20030;-75
2023/04/07 01:08:46;;;;;;;1999.90;999.90;;;9.00;99.90;;;;;;5048883;28;20040;-75
2023/04/07 01:11:29;;;;;;;1999.90;999.90;;;9.00;99.90;;;;;;5053230;28;20025;-71
2023/04/07 01:13:58;;;;;;;1999.90;999.90;;;9.00;99.90;;;;;;5053161;28;20025;-75
2023/04/07 01:16:31;;;;;;;1999.90;999.90;;;9.10;99.90;;;;;;5053142;28;20040;-75
2023/04/07 01:19:03;;;;;;;1999.90;999.90;;;9.10;99.90;;;;;;5052496;28;20029;-70
2023/04/07 01:21:33;;;;;;;1999.90;999.90;;;9.10;99.90;;;;;;5052890;28;20048;-70
2023/04/07 01:24:18;;;;;;;1999.90;999.90;;;9.10;99.90;;;;;;5052955;28;20029;-70
2023/04/07 01:26:46;;;;;;;1999.90;999.90;;;9.10;99.90;;;;;;5053147;28;20442;-70
2023/04/07 01:29:30;;;;;;;1999.90;999.90;;;9.10;99.90;;;;;;5052716;28;20395;-74
2023/04/07 01:31:58;;;;;;;1999.90;999.90;;;9.10;99.90;;;;;;5052862;28;20017;-74
2023/04/07 01:34:27;;;;;;;1999.90;999.90;;;9.10;99.90;;;;;;5052238;28;20036;-75
2023/04/07 01:36:54;;;;;;;1999.90;999.90;;;9.20;99.90;;;;;;5052854;28;20070;-70
2023/04/07 01:39:21;;;;;;;1999.90;999.90;;;9.20;99.90;;;;;;5052483;28;20499;-75
2023/04/07 01:41:50;;;;;;;1999.90;999.90;;;9.20;99.90;;;;;;5052648;28;20102;-70
2023/04/07 01:44:17;;;;;;;1999.90;999.90;;;9.20;99.90;;;;;;5052603;28;20043;-75
2023/04/07 01:46:42;;;;;;;1999.90;999.90;;;9.20;99.90;;;;;;5052849;28;20136;-70
2023/04/07 01:49:10;;;;;;;1999.90;999.90;;;9.20;99.90;;;;;;5052390;28;20079;-75
2023/04/07 01:51:36;;;;;;;1999.90;999.90;;;9.20;99.90;;;;;;5052532;28;20025;-70
2023/04/07 01:54:03;;;;;;;1999.90;999.90;;;9.20;99.90;;;;;;5052496;28;20104;-70
2023/04/07 01:56:29;;;;;;;1999.90;999.90;;;9.20;99.90;;;;;;5052722;28;20075;-70
2023/04/07 01:58:55;;;;;;;1999.90;999.90;;;9.30;99.90;;;;;;5054316;28;20037;-75
2023/04/07 02:01:21;;;;;;;1999.90;999.90;;;9.20;99.90;;;;;;5056847;28;20108;-70
2023/04/07 02:03:54;;;;;;;1999.90;999.90;;;9.30;99.90;;;;;;5036669;28;20423;-70
2023/04/07 02:06:25;;;;;;;1999.90;999.90;;;9.30;99.90;;;;;;5037138;28;20021;-70
2023/04/07 02:08:57;;;;;;;1999.90;999.90;;;9.40;99.90;;;;;;5054954;28;20025;-75
2023/04/07 02:11:25;;;;;;;1999.90;999.90;;;9.50;99.90;;;;;;5056980;28;20468;-75
2023/04/07 02:13:53;;;;;;;1999.90;999.90;;;9.50;99.90;;;;;;5056380;28;20049;-74
2023/04/07 02:16:19;;;;;;;1999.90;999.90;;;9.60;99.90;;;;;;5056392;28;20021;-71
2023/04/07 02:18:46;;;;;;;1999.90;999.90;;;9.70;99.90;;;;;;5036709;28;20048;-70
2023/04/07 02:21:14;;;;;;;1999.90;999.90;;;9.80;99.90;;;;;;5036482;28;20068;-75
2023/04/07 02:23:40;;;;;;;1999.90;999.90;;;9.90;99.90;;;;;;5056402;28;20097;-75
2023/04/07 02:26:05;;;;;;;1999.90;999.90;;;9.90;99.90;;;;;;5056097;28;20495;-75
2023/04/07 02:28:31;;;;;;;1999.90;999.90;;;10.00;99.90;;;;;;5056536;28;20025;-75
2023/04/07 02:30:57;;;;;;;1999.90;999.90;;;10.00;99.90;;;;;;5054602;28;20055;-70
2023/04/07 02:33:22;;;;;;;1999.90;999.90;;;10.10;99.90;;;;;;5054934;28;20120;-70
2023/04/07 02:35:48;;;;;;;1999.90;999.90;;;10.10;99.90;;;;;;5056234;28;20036;-75
2023/04/07 02:38:14;;;;;;;1999.90;999.90;;;10.10;99.90;;;;;;5055902;28;20025;-70
2023/04/07 02:40:40;;;;;;;1999.90;999.90;;;10.10;99.90;;;;;;5056332;28;20037;-75
2023/04/07 02:43:05;;;;;;;1999.90;999.90;;;10.20;99.90;;;;;;5055836;28;20029;-70
2023/04/07 02:45:31;;;;;;;1999.90;999.90;;;10.30;99.90;;;;;;5055621;28;20112;-70
2023/04/07 02:47:57;;;;;;;1999.90;999.90;;;10.40;99.90;;;;;;5056261;28;20028;-75
2023/04/07 02:50:24;;;;;;;1999.90;999.90;;;10.40;99.90;;;;;;5055724;28;20029;-75
2023/04/07 02:52:50;;;;;;;1999.90;999.90;;;10.40;99.90;;;;;;5055765;28;20029;-75
2023/04/07 02:55:17;;;;;;;1999.90;999.90;;;10.40;99.90;;;;;;5055688;28;20083;-70
2023/04/07 02:57:43;;;;;;;1999.90;999.90;;;10.40;99.90;;;;;;5055864;28;20021;-70
2023/04/07 03:00:09;;;;;;;1999.90;999.90;;;10.40;99.90;;;;;;5055684;28;20500;-70
2023/04/07 03:02:35;;;;;;;1999.90;999.90;;;10.40;99.90;;;;;;5046019;28;20025;-70
2023/04/07 03:05:01;;;;;;;1999.90;999.90;;;10.30;99.90;;;;;;5035574;28;20078;-75
2023/04/07 03:07:26;;;;;;;1999.90;999.90;;;10.20;99.90;;;;;;5042591;28;20518;-75
2023/04/07 03:09:52;;;;;;;1999.90;999.90;;;10.10;99.90;;;;;;5054514;28;20013;-70
2023/04/07 03:12:17;;;;;;;1999.90;999.90;;;10.00;99.90;;;;;;5055278;28;20096;-70
2023/04/07 03:14:43;;;;;;;1999.90;999.90;;;10.00;99.90;;;;;;5055678;28;20373;-75
2023/04/07 03:17:09;;;;;;;1999.90;999.90;;;10.00;99.90;;;;;;5055164;28;20075;-75
2023/04/07 03:19:34;;;;;;;1999.90;999.90;;;10.00;99.90;;;;;;5055542;28;20402;-75
2023/04/07 03:22:00;;;;;;;1999.90;999.90;;;10.00;99.90;;;;;;5054754;28;20025;-70
2023/04/07 03:24:26;;;;;;;1999.90;999.90;;;10.10;99.90;;;;;;5055287;28;20106;-70
2023/04/07 03:26:51;;;;;;;1999.90;999.90;;;10.10;99.90;;;;;;5055563;28;20020;-75
2023/04/07 03:29:17;;;;;;;1999.90;999.90;;;10.10;99.90;;;;;;5055237;28;20029;-75
2023/04/07 03:31:43;;;;;;;1999.90;999.90;;;10.10;99.90;;;;;;5055022;28;20060;-75
2023/04/07 03:34:09;;;;;;;1999.90;999.90;;;10.00;99.90;;;;;;5054502;28;20504;-75
2023/04/07 03:36:34;;;;;;;1999.90;999.90;;;10.00;99.90;;;;;;5054986;28;20400;-70
2023/04/07 03:39:00;;;;;;;1999.90;999.90;;;9.90;99.90;;;;;;5055055;28;20040;-71
2023/04/07 03:41:26;;;;;;;1999.90;999.90;;;9.90;99.90;;;;;;5053598;28;20104;-70
2023/04/07 03:43:51;;;;;;;1999.90;999.90;;;9.80;99.90;;;;;;5054490;28;20029;-75
2023/04/07 03:46:19;;;;;;;1999.90;999.90;;;9.80;99.90;;;;;;5054762;28;20046;-75
2023/04/07 03:48:45;;;;;;;1999.90;999.90;;;9.70;99.90;;;;;;5054420;28;20072;-70
2023/04/07 03:51:11;;;;;;;1999.90;999.90;;;9.70;99.90;;;;;;5054792;28;20021;-70
2023/04/07 03:53:36;;;;;;;1999.90;999.90;;;9.70;99.90;;;;;;5054549;28;20035;-75
2023/04/07 03:56:02;;;;;;;1999.90;999.90;;;9.60;99.90;;;;;;5054709;28;20048;-75
2023/04/07 03:58:28;;;;;;;1999.90;999.90;;;9.60;99.90;;;;;;5054753;28;20025;-75
2023/04/07 04:00:53;;;;;;;1999.90;999.90;;;9.60;99.90;;;;;;5054479;28;20079;-70
2023/04/07 04:03:19;;;;;;;1999.90;999.90;;;9.50;99.90;;;;;;5038904;28;20076;-71
2023/04/07 04:05:45;;;;;;;1999.90;999.90;;;9.40;99.90;;;;;;5034579;28;20033;-75
2023/04/07 04:08:10;;;;;;;1999.90;999.90;;;9.40;99.90;;;;;;5047673;28;20037;-75
2023/04/07 04:10:36;;;;;;;1999.90;999.90;;;9.40;99.90;;;;;;5054424;28;20048;-75
2023/04/07 04:13:05;;;;;;;1999.90;999.90;;;9.40;99.90;;;;;;5054359;28;20557;-75
2023/04/07 04:15:31;;;;;;;1999.90;999.90;;;9.40;99.90;;;;;;5054297;28;20021;-70
2023/04/07 04:17:56;;;;;;;1999.90;999.90;;;9.40;99.90;;;;;;5053473;28;20029;-70
2023/04/07 04:20:22;;;;;;;1999.90;999.90;;;9.40;99.90;;;;;;5054390;28;20025;-75
2023/04/07 04:22:47;;;;;;;1999.90;999.90;;;9.40;99.90;;;;;;5053830;28;20381;-75
2023/04/07 04:25:13;;;;;;;1999.90;999.90;;;9.40;99.90;;;;;;5053948;28;20024;-75
2023/04/07 04:27:39;;;;;;;1999.90;999.90;;;9.30;99.90;;;;;;5054079;28;20029;-70
2023/04/07 04:30:05;;;;;;;1999.90;999.90;;;9.30;99.90;;;;;;5053940;28;20373;-70
2023/04/07 04:32:31;;;;;;;1999.90;999.90;;;9.30;99.90;;;;;;5054015;28;20029;-75
2023/04/07 04:34:57;;;;;;;1999.90;999.90;;;9.20;99.90;;;;;;5053276;28;20399;-75
2023/04/07 04:37:22;;;;;;;1999.90;999.90;;;9.20;99.90;;;;;;5053971;28;20057;-75
2023/04/07 04:39:48;;;;;;;1999.90;999.90;;;9.20;99.90;;;;;;5053511;28;20464;-70
2023/04/07 04:42:15;;;;;;;1999.90;999.90;;;9.10;99.90;;;;;;5053342;28;20041;-70
2023/04/07 04:44:41;;;;;;;1999.90;999.90;;;9.10;99.90;;;;;;5053939;28;20075;-75
2023/04/07 04:47:06;;;;;;;1999.90;999.90;;;9.10;99.90;;;;;;5053842;28;20388;-75
2023/04/07 04:49:32;;;;;;;1999.90;999.90;;;9.10;99.90;;;;;;5052129;28;20055;-75
2023/04/07 04:51:57;;;;;;;1999.90;999.90;;;9.10;99.90;;;;;;5053505;28;20104;-75
2023/04/07 04:54:23;;;;;;;1999.90;999.90;;;9.10;99.90;;;;;;5053381;28;20492;-71
2023/04/07 04:56:49;;;;;;;1999.90;999.90;;;9.10;99.90;;;;;;5053481;28;20400;-70
2023/04/07 04:59:14;;;;;;;1999.90;999.90;;;9.10;99.90;;;;;;5052205;28;20111;-71
2023/04/07 05:01:40;;;;;;;1999.90;999.90;;;9.10;99.90;;;;;;5049990;28;20085;-75
2023/04/07 05:04:07;;;;;;;1999.90;999.90;;;9.20;99.90;;;;;;5033006;28;20026;-75
2023/04/07 05:06:33;;;;;;;1999.90;999.90;;;9.20;99.90;;;;;;5033472;28;20025;-70
2023/04/07 05:08:59;;;;;;;1999.90;999.90;;;9.20;99.90;;;;;;5052650;28;20082;-70
2023/04/07 05:11:24;;;;;;;1999.90;999.90;;;9.30;99.90;;;;;;5053113;28;20033;-75
2023/04/07 05:13:50;;;;;;;1999.90;999.90;;;9.30;99.90;;;;;;5052807;28;20021;-75
2023/04/07 05:16:16;;;;;;;1999.90;999.90;;;9.30;99.90;;;;;;5052922;28;20025;-75
2023/04/07 05:18:41;;;;;;;1999.90;999.90;;;9.30;99.90;;;;;;5052807;28;20598;-70
2023/04/07 05:21:07;;;;;;;1999.90;999.90;;;9.40;99.90;;;;;;5053208;28;20021;-70
2023/04/07 05:23:33;;;;;;;1999.90;999.90;;;9.40;99.90;;;;;;5052610;28;20392;-75
2023/04/07 05:25:58;;;;;;;1999.90;999.90;;;9.40;99.90;;;;;;5052740;28;20025;-75
2023/04/07 05:28:24;;;;;;;1999.90;999.90;;;9.40;99.90;;;;;;5052713;28;20053;-75
2023/04/07 05:30:50;;;;;;;1999.90;999.90;;;9.40;99.90;;;;;;5052718;28;20017;-70
2023/04/07 05:33:15;;;;;;;1999.90;999.90;;;9.30;99.90;;;;;;5052366;28;20104;-70
2023/04/07 05:35:43;;;;;;;1999.90;999.90;;;9.30;99.90;;;;;;5050615;28;20484;-70
2023/04/07 05:38:10;;;;;;;1999.90;999.90;;;9.20;99.90;;;;;;5052205;28;20374;-70
2023/04/07 05:40:36;;;;;;;1999.90;999.90;;;9.20;99.90;;;;;;5060665;28;20499;-75
2023/04/07 05:43:01;;;;;;;1999.90;999.90;;;9.30;99.90;;;;;;5060747;28;20036;-70
2023/04/07 05:45:27;;;;;;;1999.90;999.90;;;9.30;99.90;;;;;;5049995;28;20033;-75
2023/04/07 05:47:52;;;;;;;1999.90;999.90;;;9.20;99.90;;;;;;5052518;28;20033;-74
2023/04/07 05:50:18;;;;;;;1999.90;999.90;;;9.20;99.90;;;;;;5046377;28;20488;-75
2023/04/07 05:52:44;;;;;;;1999.90;999.90;;;9.20;99.90;;;;;;5035432;28;20036;-71
2023/04/07 05:55:09;;;;;;;1999.90;999.90;;;9.10;99.90;;;;;;5045186;28;20558;-70
2023/04/07 05:57:35;;;;;;;1999.90;999.90;;;9.00;99.90;;;;;;5047220;28;20041;-70
2023/04/07 06:00:01;;;;;;;1999.90;999.90;;;9.00;99.90;;;;;;5046883;28;20048;-71
2023/04/07 06:02:26;;;;;;;1999.90;999.90;;;8.90;99.90;;;;;;5046543;28;20518;-75
2023/04/07 06:04:52;;;;;;;1999.90;999.90;;;8.80;99.90;;;;;;5041626;28;20373;-70
2023/04/07 06:07:18;;;;;;;1999.90;999.90;;;8.80;99.90;;;;;;5045721;28;20058;-70
2023/04/07 06:09:43;;;;;;;1999.90;999.90;;;8.80;99.90;;;;;;5042905;28;20167;-74
2023/04/07 06:12:11;;;;;;;1999.90;999.90;;;8.70;99.90;;;;;;5044054;28;20033;-70
2023/04/07 06:14:37;;;;;;;1999.90;999.90;;;8.60;99.90;;;;;;5045582;28;20108;-70
2023/04/07 06:17:02;;;;;;;1999.90;999.90;;;8.50;99.90;;;;;;5045247;28;20484;-70
2023/04/07 06:19:28;;;;;;;1999.90;999.90;;;8.60;99.90;;;;;;5045054;28;20040;-75
2023/04/07 06:21:54;;;;;;;1999.90;999.90;;;8.60;99.90;;;;;;5044677;28;20033;-74
2023/04/07 06:24:23;;;;;;;1999.90;999.90;;;8.60;99.90;;;;;;5041063;28;20111;-71
2023/04/07 06:26:50;;;;;;;1999.90;999.90;;;8.70;99.90;;;;;;5044638;28;20025;-70
2023/04/07 06:29:16;;;;;;;1999.90;999.90;;;8.80;99.90;;;;;;5046189;28;20430;-75
2023/04/07 06:31:41;;;;;;;1999.90;999.90;;;8.90;99.90;;;;;;5044889;28;20025;-74
2023/04/07 06:34:07;;;;;;;1999.90;999.90;;;8.90;99.90;;;;;;5044707;28;20080;-74
2023/04/07 06:36:33;;;;;;;1999.90;999.90;;;8.90;99.90;;;;;;5044190;28;20043;-71
2023/04/07 06:38:59;;;;;;;1999.90;999.90;;;8.90;99.90;;;;;;5040731;28;20033;-70
2023/04/07 06:41:24;;;;;;;1999.90;999.90;;;8.90;99.90;;;;;;5045500;28;20451;-71
2023/04/07 06:43:50;;;;;;;1999.90;999.90;;;9.00;99.90;;;;;;5048731;28;20435;-75
2023/04/07 06:46:17;;;;;;;1999.90;999.90;;;9.00;99.90;;;;;;5055492;28;20614;-71
2023/04/07 06:48:42;;;;;;;1999.90;999.90;;;9.00;99.90;;;;;;5053639;28;20040;-78
2023/04/07 06:51:08;;;;;;;1999.90;999.90;;;9.10;99.90;;;;;;5053320;28;20547;-72
2023/04/07 06:53:33;;;;;;;1999.90;999.90;;;9.20;99.90;;;;;;5058229;28;20025;-72
2023/04/07 06:56:17;;;;;;;1999.90;999.90;;;9.20;99.90;;;;;;5069973;28;20115;-77
2023/04/07 06:58:43;;;;;;;1999.90;999.90;;;9.30;99.90;;;;;;5040274;28;21239;-77
2023/04/07 07:01:09;;;;;;;1999.90;999.90;;;9.40;99.90;;;;;;5045596;28;20039;-75
2023/04/07 07:03:34;;;;;;;1999.90;999.90;;;9.50;99.90;;;;;;5052132;28;20037;-70
2023/04/07 07:06:01;;;;;;;1999.90;999.90;;;9.50;99.90;;;;;;5053723;28;20353;-72
2023/04/07 07:08:28;;;;;;;1999.90;999.90;;;9.60;99.90;;;;;;5053660;28;20044;-74
2023/04/07 07:10:54;;;;;;;1999.90;999.90;;;9.80;99.90;;;;;;5053987;28;20024;-77
2023/04/07 07:13:25;;;;;;;1999.90;999.90;;;9.80;99.90;;;;;;5052457;28;20033;-77
2023/04/07 07:15:50;;;;;;;1999.90;999.90;;;9.90;99.90;;;;;;5053718;28;20128;-71
2023/04/07 07:18:16;;;;;;;1999.90;999.90;;;10.00;99.90;;;;;;5065169;28;20028;-71
2023/04/07 07:20:42;;;;;;;1999.90;999.90;;;10.20;99.90;;;;;;5073705;28;20042;-74
2023/04/07 07:23:08;;;;;;;1999.90;999.90;;;10.30;99.90;;;;;;5069682;28;20025;-71
2023/04/07 07:25:34;;;;;;;1999.90;999.90;;;10.40;99.90;;;;;;5072572;28;20044;-71
2023/04/07 07:28:00;;;;;;;1999.90;999.90;;;10.50;99.90;;;;;;5072920;28;20024;-76
2023/04/07 07:30:25;;;;;;;1999.90;999.90;;;10.60;99.90;;;;;;5073047;28;20431;-71
2023/04/07 07:32:53;;;;;;;1999.90;999.90;;;10.70;99.90;;;;;;5067090;28;20488;-72
2023/04/07 07:35:19;;;;;;;1999.90;999.90;;;10.70;99.90;;;;;;5051909;28;20108;-76
2023/04/07 07:37:45;;;;;;;1999.90;999.90;;;10.90;99.90;;;;;;5051730;28;20033;-70
2023/04/07 07:40:11;;;;;;;1999.90;999.90;;;10.90;99.90;;;;;;5050889;28;20037;-77
2023/04/07 07:42:37;;;;;;;1999.90;999.90;;;11.10;99.90;;;;;;5051886;28;20029;-72
2023/04/07 07:45:03;;;;;;;1999.90;999.90;;;11.20;99.90;;;;;;5051518;28;20499;-73
2023/04/07 07:47:29;;;;;;;1999.90;999.90;;;11.40;99.90;;;;;;5040347;28;20033;-79
2023/04/07 07:49:55;;;;;;;1999.90;999.90;;;11.40;99.90;;;;;;5044781;28;20049;-79
2023/04/07 07:52:21;;;;;;;1999.90;999.90;;;11.60;99.90;;;;;;5052121;28;20365;-80
2023/04/07 07:54:50;;;;;;;1999.90;999.90;;;11.90;99.90;;;;;;5051847;28;20071;-73
2023/04/07 07:57:16;;;;;;;1999.90;999.90;;;14.20;99.90;;;;;;5051256;28;20368;-74
2023/04/07 07:59:41;;;;;;;1999.90;999.90;;;16.40;99.90;;;;;;5061375;28;20041;-79
2023/04/07 08:02:07;;;;;;;1999.90;999.90;;;18.00;99.90;;;;;;5050525;28;20033;-73
2023/04/07 08:04:35;;;;;;;1999.90;999.90;;;19.00;99.90;;;;;;5050169;28;20115;-78
2023/04/07 08:07:01;;;;;;;1999.90;999.90;;;19.80;99.90;;;;;;5051658;28;20487;-74
2023/04/07 08:09:27;;;;;;;1999.90;999.90;;;20.70;99.90;;;;;;5049627;28;20028;-74
2023/04/07 08:11:52;;;;;;;1999.90;999.90;;;21.30;99.90;;;;;;5051639;28;20041;-79
2023/04/07 08:14:18;;;;;;;1999.90;999.90;;;21.70;99.90;;;;;;5058820;28;20024;-77
2023/04/07 08:16:44;;;;;;;1999.90;999.90;;;21.30;99.90;;;;;;5051019;28;20047;-79
2023/04/07 08:19:10;;;;;;;1999.90;999.90;;;21.90;99.90;;;;;;5053160;28;20040;-78
2023/04/07 08:21:36;;;;;;;1999.90;999.90;;;22.50;99.90;;;;;;5065332;28;20057;-74
2023/04/07 08:24:02;;;;;;;1999.90;999.90;;;23.00;99.90;;;;;;5050988;28;20061;-75
2023/04/07 08:26:28;;;;;;;1999.90;999.90;;;23.20;99.90;;;;;;5048100;28;20028;-79
2023/04/07 08:28:54;;;;;;;1999.90;999.90;;;23.40;99.90;;;;;;5043570;28;20033;-75
2023/04/07 08:31:20;;;;;;;1999.90;999.90;;;23.10;99.90;;;;;;5051352;28;20021;-78
2023/04/07 08:33:46;;;;;;;1999.90;999.90;;;23.40;99.90;;;;;;5052878;28;20027;-75
2023/04/07 08:36:12;;;;;;;1999.90;999.90;;;24.00;99.90;;;;;;5070622;28;20032;-75
2023/04/07 08:38:37;;;;;;;1999.90;999.90;;;23.70;99.90;;;;;;5062457;28;20036;-75
2023/04/07 08:41:16;;;;;;;1999.90;999.90;;;23.70;99.90;;;;;;5051165;28;20025;-75
2023/04/07 08:43:45;;;;;;;1999.90;999.90;;;24.20;98.60;;;;;;5049330;28;20056;-75
2023/04/07 08:46:12;;;;;;;1999.90;999.90;;;24.00;98.30;;;;;;5042400;28;20540;-80
2023/04/07 08:48:39;;;;;;;1999.90;999.90;;;23.60;97.90;;;;;;5050792;28;20037;-76
2023/04/07 08:51:07;;;;;;;1999.90;999.90;;;23.80;98.90;;;;;;5049640;28;20029;-75
2023/04/07 08:53:42;;;;;;;1999.90;999.90;;;24.00;99.20;;;;;;5050169;28;20078;-81
2023/04/07 08:56:10;;;;;;;1999.90;999.90;;;25.00;98.00;;;;;;5047377;28;20547;-82
2023/04/07 08:58:36;;;;;;;1999.90;999.90;;;24.70;97.60;;;;;;5050550;28;20098;-76
2023/04/07 09:01:05;;;;;;;1999.90;999.90;;;24.50;97.10;;;;;;5057484;28;20016;-76
2023/04/07 09:03:32;;;;;;;1999.90;999.90;;;24.60;96.80;;;;;;5052067;28;20044;-81
2023/04/07 09:06:00;;;;;;;1999.90;999.90;;;24.80;97.00;;;;;;5049954;28;20017;-81
2023/04/07 09:08:25;;;;;;;1999.90;999.90;;;24.60;98.40;;;;;;5053486;28;20025;-77
2023/04/07 09:10:51;;;;;;;1999.90;999.90;;;25.10;96.70;;;;;;5046488;28;20031;-77
2023/04/07 09:13:17;;;;;;;1999.90;999.90;;;25.60;96.70;;;;;;5043494;28;20434;-77
2023/04/07 09:15:43;;;;;;;1999.90;999.90;;;25.20;95.20;;;;;;5046235;28;20035;-77
2023/04/07 09:18:09;;;;;;;1999.90;999.90;;;25.90;95.50;;;;;;5062729;28;20074;-81
2023/04/07 09:20:58;;;;;;;1999.90;999.90;;;25.60;96.00;;;;;;5070022;28;20062;-82
2023/04/07 09:23:35;;;;;;;1999.90;999.90;;;25.80;96.70;;;;;;5051545;28;20021;-80
2023/04/07 09:26:24;;;;;;;1999.90;999.90;;;26.10;95.90;;;;;;5050099;28;20055;-77
2023/04/07 09:28:54;;;;;;;1999.90;999.90;;;26.20;95.60;;;;;;5050770;28;20021;-77
2023/04/07 09:31:42;;;;;;;1999.90;999.90;;;26.10;93.50;;;;;;5050070;28;20094;-81
2023/04/07 09:34:24;;;;;;;1999.90;999.90;;;26.30;94.60;;;;;;5053352;28;20503;-77
2023/04/07 09:36:50;;;;;;;1999.90;999.90;;;26.20;94.30;;;;;;5050028;28;20021;-81
2023/04/07 09:39:15;;;;;;;1999.90;999.90;;;25.70;94.90;;;;;;5049048;28;20107;-81
2023/04/07 09:41:41;;;;;;;1999.90;999.90;;;25.70;96.30;;;;;;5049697;28;20053;-77
2023/04/07 09:44:07;;;;;;;1999.90;999.90;;;26.30;94.70;;;;;;5049599;28;20020;-82
2023/04/07 09:46:32;;;;;;;1999.90;999.90;;;26.40;93.80;;;;;;5048950;28;20029;-79
2023/04/07 09:49:04;;;;;;;1999.90;999.90;;;26.30;93.50;;;;;;5049936;28;20133;-82
2023/04/07 09:51:30;;;;;;;1999.90;999.90;;;26.00;94.20;;;;;;5050055;28;20029;-77
2023/04/07 09:53:55;;;;;;;1999.90;999.90;;;26.40;94.10;;;;;;5049353;28;20547;-77
2023/04/07 09:56:21;;;;;;;1999.90;999.90;;;26.40;93.80;;;;;;5050187;28;20064;-82
2023/04/07 09:58:50;;;;;;;1999.90;999.90;;;26.10;92.90;;;;;;5045764;28;20076;-77
2023/04/07 10:01:16;;;;;;;1999.90;999.90;;;26.00;93.80;;;;;;5045267;28;20064;-81
2023/04/07 10:03:43;;;;;;;1999.90;999.90;;;25.30;93.10;;;;;;5045279;28;20030;-76
2023/04/07 10:06:09;;;;;;;1999.90;999.90;;;24.60;95.40;;;;;;5046016;28;20029;-76
2023/04/07 10:08:37;;;;;;;1999.90;999.90;;;24.40;93.80;;;;;;5049384;28;20263;-76
2023/04/07 10:11:04;;;;;;;1999.90;999.90;;;23.10;95.70;;;;;;5048165;28;20021;-82
2023/04/07 10:13:38;;;;;;;1999.90;999.90;;;23.60;96.10;;;;;;5043331;28;20020;-81
2023/04/07 10:16:05;;;;;;;1999.90;999.90;;;23.60;96.10;;;;;;5048271;28;20029;-83
2023/04/07 10:18:33;;;;;;;1999.90;999.90;;;22.60;97.40;;;;;;5048345;28;20021;-76
2023/04/07 10:21:04;;;;;;;1999.90;999.90;;;22.00;98.70;;;;;;5067555;28;20480;-76
2023/04/07 10:24:18;;;;;;;1999.90;999.90;;;21.20;98.80;;;;;;5054137;28;20564;-76
2023/04/07 10:26:47;;;;;;;1999.90;999.90;;;20.60;99.90;;;;;;5039920;28;20033;-83
2023/04/07 10:29:14;;;;;;;1999.90;999.90;;;20.30;99.90;;;;;;5048993;28;20403;-76
2023/04/07 10:31:40;;;;;;;1999.90;999.90;;;20.00;99.90;;;;;;5048485;28;20484;-76
2023/04/07 10:34:06;;;;;;;1999.90;999.90;;;20.00;99.90;;;;;;5050264;28;20036;-76
2023/04/07 10:36:32;;;;;;;1999.90;999.90;;;19.80;99.90;;;;;;5051064;28;20029;-76
2023/04/07 10:39:07;;;;;;;1999.90;999.90;;;20.00;99.90;;;;;;5051209;28;20547;-82
2023/04/07 10:41:40;;;;;;;1999.90;999.90;;;19.90;99.90;;;;;;5049635;28;20029;-76
2023/04/07 10:44:07;;;;;;;1999.90;999.90;;;19.90;99.90;;;;;;5046394;28;20117;-76
2023/04/07 10:46:46;;;;;;;1999.90;999.90;;;19.50;99.90;;;;;;5046610;28;20028;-75
2023/04/07 10:49:12;;;;;;;1999.90;999.90;;;19.50;99.90;;;;;;5049178;28;20090;-82
2023/04/07 10:51:38;;;;;;;1999.90;999.90;;;19.50;99.90;;;;;;5055686;28;20029;-81
2023/04/07 10:54:17;;;;;;;1999.90;999.90;;;19.40;99.90;;;;;;5050957;28;20021;-81
2023/04/07 10:57:06;;;;;;;1999.90;999.90;;;18.70;99.90;;;;;;5049478;28;20040;-80
2023/04/07 10:59:33;;;;;;;1999.90;999.90;;;17.90;99.90;;;;;;5044983;28;20021;-75
2023/04/07 11:02:16;;;;;;;1999.90;999.90;;;17.60;99.90;;;;;;5050134;28;20049;-75
2023/04/07 11:04:44;;;;;;;1999.90;999.90;;;17.70;99.90;;;;;;5048255;28;20050;-81
2023/04/07 11:07:10;;;;;;;1999.90;999.90;;;18.40;99.90;;;;;;5052668;28;20037;-80
2023/04/07 11:09:36;;;;;;;1999.90;999.90;;;18.80;99.90;;;;;;5064954;28;20067;-75
2023/04/07 11:12:03;;;;;;;1999.90;999.90;;;19.50;99.90;;;;;;5063188;28;20475;-75
2023/04/07 11:14:30;;;;;;;1999.90;999.90;;;19.50;99.90;;;;;;5049681;28;20017;-82
2023/04/07 11:16:57;;;;;;;1999.90;999.90;;;19.50;99.90;;;;;;5052034;28;20037;-81
2023/04/07 11:19:23;;;;;;;1999.90;999.90;;;19.60;99.90;;;;;;5052416;28;20104;-81
2023/04/07 11:21:48;;;;;;;1999.90;999.90;;;19.70;99.90;;;;;;5052576;28;20074;-81
2023/04/07 11:24:33;;;;;;;1999.90;999.90;;;19.70;99.90;;;;;;5052472;28;20037;-74
2023/04/07 11:26:58;;;;;;;1999.90;999.90;;;19.60;99.90;;;;;;5052302;28;20032;-82
2023/04/07 11:29:31;;;;;;;1999.90;999.90;;;19.80;99.90;;;;;;5052445;28;20033;-82
2023/04/07 11:32:01;;;;;;;1999.90;999.90;;;19.30;99.90;;;;;;5051849;28;20028;-81
2023/04/07 11:34:31;;;;;;;1999.90;999.90;;;19.50;99.90;;;;;;5052687;28;20033;-82
2023/04/07 11:37:02;;;;;;;1999.90;999.90;;;19.60;99.90;;;;;;5052100;28;20502;-75
2023/04/07 11:39:30;;;;;;;1999.90;999.90;;;19.20;99.90;;;;;;5049897;28;20360;-82
2023/04/07 11:41:56;;;;;;;1999.90;999.90;;;18.20;99.90;;;;;;5049387;28;20036;-81
2023/04/07 11:44:22;;;;;;;1999.90;999.90;;;18.10;99.90;;;;;;5051572;28;20032;-83
2023/04/07 11:46:55;;;;;;;1999.90;999.90;;;17.90;99.90;;;;;;5048898;28;20044;-82
2023/04/07 11:49:25;;;;;;;1999.90;999.90;;;17.50;99.90;;;;;;5051659;28;20052;-74
2023/04/07 11:51:59;;;;;;;1999.90;999.90;;;18.20;99.90;;;;;;5052039;28;20116;-78
2023/04/07 11:54:25;;;;;;;1999.90;999.90;;;18.60;99.90;;;;;;5052009;28;20087;-80
2023/04/07 11:56:54;;;;;;;1999.90;999.90;;;18.20;99.90;;;;;;5050072;28;20131;-78
2023/04/07 11:59:24;;;;;;;1999.90;999.90;;;17.80;99.90;;;;;;5055601;28;20044;-82
2023/04/07 12:01:52;;;;;;;1999.90;999.90;;;17.30;99.90;;;;;;5053442;28;20036;-74
2023/04/07 12:04:18;;;;;;;1999.90;999.90;;;17.00;99.90;;;;;;5051771;28;20021;-73
2023/04/07 12:06:46;;;;;;;1999.90;999.90;;;16.70;99.90;;;;;;5049588;28;20060;-80